This is the latest recevied weather packets stored in our database for station/object KC1OEK-13. If no packets are shown the sender has not sent any weather packets the latest 10 day(s).
| Time | Temp. | Humidity | Pressure | Rain* | Wind** | Luminosity | Snow |
|---|---|---|---|---|---|---|---|
| 1778034393 | 17.78° C | 68% | 1012.1 hPa | 0 mm | - | 0 W/m² | - |
| 1778034090 | 17.22° C | 69% | 1012.1 hPa | 0 mm | - | 0 W/m² | - |
| 1778033788 | 17.22° C | 69% | 1012.1 hPa | 0 mm | - | 0 W/m² | - |
| 1778033485 | 17.22° C | 69% | 1012.1 hPa | 0 mm | - | 0 W/m² | - |
| 1778033182 | 17.22° C | 70% | 1012.3 hPa | 0 mm | - | 0 W/m² | - |
| 1778032880 | 17.22° C | 70% | 1011.9 hPa | 0 mm | - | 0 W/m² | - |
| 1778032577 | 17.22° C | 69% | 1011.9 hPa | 0 mm | - | 0 W/m² | - |
| 1778032274 | 17.22° C | 69% | 1012 hPa | 0 mm | - | 0 W/m² | - |
| 1778031972 | 17.78° C | 68% | 1011.7 hPa | 0 mm | - | 0 W/m² | - |
| 1778031365 | 17.78° C | 67% | 1011.8 hPa | 0 mm | - | 0 W/m² | - |
| 1778031062 | 18.33° C | 67% | 1011.5 hPa | 0 mm | - | 0 W/m² | - |
| 1778030758 | 18.33° C | 66% | 1011.7 hPa | 0 mm | - | 0 W/m² | - |
| 1778030454 | 17.78° C | 66% | 1011.6 hPa | 0 mm | - | 0 W/m² | - |
| 1778030152 | 17.78° C | 67% | 1011.5 hPa | 0 mm | - | 0 W/m² | - |
| 1778029843 | 17.78° C | 66% | 1011.5 hPa | 0 mm | - | 0 W/m² | - |
| 1778028936 | 18.33° C | 65% | 1011.3 hPa | 0 mm | - | 0 W/m² | - |
| 1778028026 | 18.89° C | 63% | 1011 hPa | 0 mm | - | 0 W/m² | - |
| 1778027722 | 18.89° C | 63% | 1011 hPa | 0 mm | - | 0 W/m² | - |
| 1778027418 | 18.89° C | 64% | 1011 hPa | 0 mm | - | 0 W/m² | - |
| 1778027114 | 18.89° C | 63% | 1010.8 hPa | 0 mm | - | 0 W/m² | - |
| 1778026810 | 18.89° C | 63% | 1010.8 hPa | 0 mm | - | 0 W/m² | - |
| 1778026507 | 19.44° C | 62% | 1010.6 hPa | 0 mm | - | 0 W/m² | - |
| 1778025297 | 20° C | 60% | 1010.5 hPa | 0 mm | - | 2 W/m² | - |
| 1778022874 | 21.11° C | 58% | 1010 hPa | 0 mm | - | 33 W/m² | - |
| 1778022270 | 21.11° C | 56% | 1010 hPa | 0 mm | - | 49 W/m² | - |
* Rain latest hour (hover to see other rain measurements)
** Current wind speed in m/s (hover to see current wind gust speed)